London, Kentucky
Current Conditions -  °F | °C
As of 11:53 AM on Thursday 23 Oct 2014 (Local Time) from KLOZ Reporting Station
Clear Clear  
Wind Chill: 55°   Ceiling: Unl
Heat Index: 55°   Visibility: 10mi
Dew Point: 39°   Wind: 7mph
Humidity: 55%   Direction: 100°E
Pressure: 30.22"   Gusts: NA
Location:  37.13°N, 84.08°W
Report Text: KLOZ 231553Z AUTO 10006KT 10SM CLR 13/04 A3022 RMK AO2 SLP233 T01280039
Loading
Personal Weather Stations






























Interactive Weather Map
Tropical Storm Tracking
New forecast layout! Learn more

10-Day Weather Forecast

Advertisements
Track Severe Weather on mobile